createdAt,value
2023-03-23T15:58:31.816Z,99816.53
2023-03-23T16:01:03.582Z,99805.22
2023-03-23T16:03:50.369Z,99811.22
2023-03-23T16:06:24.883Z,99792.91
2023-03-23T16:08:57.319Z,99782.53
2023-03-23T16:11:27.298Z,99778.22
2023-03-23T16:13:55.413Z,99773.91
2023-03-23T16:16:38.859Z,99760.00
2023-03-23T16:19:07.078Z,99786.09
2023-03-23T16:21:34.902Z,99772.94
2023-03-23T16:24:02.576Z,99760.06
2023-03-23T16:26:30.393Z,99755.66
2023-03-23T16:29:09.947Z,99748.78
2023-03-23T16:31:42.293Z,99755.81
2023-03-23T16:34:09.933Z,99765.25
2023-03-23T16:36:37.420Z,99751.19
2023-03-23T16:39:05.005Z,99739.13
2023-03-23T16:41:32.590Z,99734.75
2023-03-23T16:44:00.099Z,99738.31
2023-03-23T16:46:27.881Z,99748.72
2023-03-23T16:48:56.168Z,99753.09
2023-03-23T16:51:23.843Z,99741.63
2023-03-23T16:53:51.416Z,99733.97
2023-03-23T16:56:19.043Z,99738.38
2023-03-23T16:58:46.382Z,99724.34
2023-03-23T17:01:13.980Z,99733.00
2023-03-23T17:03:43.898Z,99720.72
2023-03-23T17:06:11.783Z,99725.28
2023-03-23T17:08:39.199Z,99715.50
2023-03-23T17:11:07.264Z,99729.63
2023-03-23T17:13:34.773Z,99714.63
2023-03-23T17:16:02.465Z,99725.31
2023-03-23T17:18:30.494Z,99714.59
2023-03-23T17:20:58.038Z,99712.03
2023-03-23T17:23:25.715Z,99710.28
2023-03-23T17:25:54.221Z,99698.16
2023-03-23T17:28:21.901Z,99690.22
2023-03-23T17:30:51.572Z,99690.22
2023-03-23T17:33:19.173Z,99683.34
2023-03-23T17:35:49.368Z,99663.25
2023-03-23T17:38:17.972Z,99660.59
2023-03-23T17:40:45.597Z,99677.25
2023-03-23T17:43:13.285Z,99672.75
2023-03-23T17:45:44.391Z,99678.00
2023-03-23T17:48:13.449Z,99672.81
2023-03-23T17:50:41.140Z,99665.03
2023-03-23T17:53:08.631Z,99671.91
2023-03-23T17:55:36.326Z,99669.38
2023-03-23T17:58:03.814Z,99652.59
2023-03-23T18:00:34.771Z,99652.63
2023-03-23T18:03:08.292Z,99658.56
2023-03-23T18:05:39.925Z,99640.16
2023-03-23T18:08:11.058Z,99640.53
2023-03-23T18:10:47.223Z,99644.00
2023-03-23T18:13:27.613Z,99664.22
2023-03-23T18:15:56.709Z,99665.84
2023-03-23T18:18:26.038Z,99660.59
2023-03-23T18:21:05.899Z,99637.03
2023-03-23T18:23:39.081Z,99647.59
2023-03-23T18:26:13.796Z,99642.25
2023-03-23T18:28:41.310Z,99642.41
2023-03-23T18:31:11.760Z,99642.44
2023-03-23T18:33:42.617Z,99642.50
2023-03-23T18:36:10.757Z,99653.84
2023-03-23T18:38:39.190Z,99654.56
2023-03-23T18:41:08.619Z,99650.25
2023-03-23T18:43:36.153Z,99642.34
2023-03-23T18:46:04.674Z,99639.78
2023-03-23T18:48:35.714Z,99615.44
2023-03-23T18:51:04.413Z,99614.47
2023-03-23T18:53:32.099Z,99620.75
2023-03-23T18:56:17.425Z,99611.97
2023-03-23T18:58:46.019Z,99603.25
2023-03-23T19:01:16.271Z,99606.03
2023-03-23T19:03:45.491Z,99601.78
2023-03-23T19:06:22.601Z,99606.94
2023-03-23T19:08:52.294Z,99611.31
2023-03-23T19:11:20.696Z,99601.72
2023-03-23T19:13:58.770Z,99606.19
2023-03-23T19:16:31.247Z,99611.28
2023-03-23T19:19:00.757Z,99614.03
2023-03-23T19:21:29.787Z,99612.31
2023-03-23T19:23:59.355Z,99617.44
2023-03-23T19:26:36.546Z,99618.28
2023-03-23T19:31:42.708Z,99627.94
2023-03-23T19:34:12.547Z,99620.03
2023-03-23T19:36:40.118Z,99628.75
2023-03-23T19:39:08.903Z,99629.69
2023-03-23T19:41:37.101Z,99636.00
2023-03-23T19:44:05.277Z,99648.16
2023-03-23T19:46:33.016Z,99645.34
2023-03-23T19:49:01.069Z,99667.13
2023-03-23T19:51:28.724Z,99663.78
2023-03-23T19:53:57.880Z,99668.16
2023-03-23T19:56:26.262Z,99668.19
2023-03-23T19:58:53.757Z,99659.53
2023-03-23T20:01:22.237Z,99659.69
2023-03-23T20:03:49.902Z,99658.91
2023-03-23T20:06:18.341Z,99650.16
2023-03-23T20:08:47.746Z,99653.53
2023-03-23T20:11:18.109Z,99663.16
2023-03-23T20:13:48.673Z,99656.09
2023-03-23T20:16:18.030Z,99642.03
2023-03-23T20:18:47.513Z,99646.41
2023-03-23T20:21:19.877Z,99654.28
2023-03-23T20:23:49.079Z,99649.16
2023-03-23T20:26:20.801Z,99648.94
2023-03-23T20:28:48.706Z,99645.56
2023-03-23T20:31:24.267Z,99648.09
2023-03-23T20:34:07.149Z,99648.00
2023-03-23T20:36:40.610Z,99650.56
2023-03-23T20:39:12.006Z,99661.97
2023-03-23T20:41:40.513Z,99674.25
2023-03-23T20:44:14.009Z,99690.84
2023-03-23T20:46:47.680Z,99698.66
2023-03-23T20:49:15.994Z,99711.66
2023-03-23T20:51:44.944Z,99715.22
2023-03-23T20:54:15.747Z,99716.03
2023-03-23T20:56:44.293Z,99740.47
2023-03-23T20:59:13.412Z,99739.56
2023-03-23T21:01:41.080Z,99742.09
2023-03-23T21:04:15.569Z,99748.25
2023-03-23T21:06:45.243Z,99750.09
2023-03-23T21:09:13.710Z,99748.34
2023-03-23T21:11:44.248Z,99758.84
2023-03-23T21:14:13.451Z,99759.78
2023-03-23T21:16:41.713Z,99768.50
2023-03-23T21:19:09.960Z,99777.25
2023-03-23T21:21:55.848Z,99786.09
2023-03-23T21:24:29.237Z,99794.09
2023-03-23T21:26:59.925Z,99794.03
2023-03-23T21:29:28.040Z,99803.66
2023-03-23T21:34:28.047Z,99808.97
2023-03-23T21:36:55.799Z,99816.16
2023-03-23T21:39:23.761Z,99814.47
2023-03-23T21:41:51.253Z,99817.19
2023-03-23T21:44:18.818Z,99822.53
2023-03-23T21:46:46.414Z,99828.69
2023-03-23T21:49:14.504Z,99823.53
2023-03-23T21:51:43.097Z,99832.28
2023-03-23T21:54:11.781Z,99828.84
2023-03-23T21:56:39.364Z,99831.56
2023-03-23T21:59:07.868Z,99832.38
2023-03-23T22:01:37.339Z,99839.41
2023-03-23T22:04:05.592Z,99833.47
2023-03-23T22:06:34.589Z,99826.66
2023-03-23T22:09:05.515Z,99793.56
2023-03-23T22:11:33.902Z,99809.31
2023-03-23T22:14:02.709Z,99845.78
2023-03-23T22:16:30.947Z,99850.00
2023-03-23T22:19:00.334Z,99851.63
2023-03-23T22:21:28.904Z,99855.34
2023-03-23T22:23:58.682Z,99849.16
2023-03-23T22:26:27.804Z,99845.66
2023-03-23T22:28:56.147Z,99847.44
2023-03-23T22:31:26.777Z,99843.97
2023-03-23T22:33:55.774Z,99851.03
2023-03-23T22:36:25.955Z,99855.38
2023-03-23T22:38:55.087Z,99849.28
2023-03-23T22:41:25.531Z,99840.69
2023-03-23T22:43:53.665Z,99844.13
2023-03-23T22:46:21.989Z,99856.25
2023-03-23T22:48:49.632Z,99842.50
2023-03-23T22:51:18.748Z,99838.88
2023-03-23T22:53:46.835Z,99850.31
2023-03-23T22:56:14.492Z,99847.72
2023-03-23T22:58:42.006Z,99854.72
2023-03-23T23:01:13.927Z,99863.34
2023-03-23T23:03:42.134Z,99866.00
2023-03-23T23:06:12.690Z,99866.03
2023-03-23T23:08:41.460Z,99867.81
2023-03-23T23:11:12.115Z,99870.41
2023-03-23T23:13:41.075Z,99875.66
2023-03-23T23:16:10.587Z,99870.44
2023-03-23T23:18:40.244Z,99877.44
2023-03-23T23:21:13.025Z,99868.81
2023-03-23T23:23:41.591Z,99863.63
2023-03-23T23:26:09.937Z,99868.81
2023-03-23T23:28:37.403Z,99869.78
2023-03-23T23:31:06.438Z,99865.47
2023-03-23T23:33:34.015Z,99845.50
2023-03-23T23:36:02.422Z,99824.69
2023-03-23T23:38:29.994Z,99819.50
2023-03-23T23:40:57.771Z,99845.53
2023-03-23T23:43:25.628Z,99853.28
2023-03-23T23:45:53.178Z,99858.50
2023-03-23T23:48:20.863Z,99867.25
2023-03-23T23:50:51.005Z,99876.00
2023-03-23T23:53:22.913Z,99877.75
2023-03-23T23:55:50.574Z,99885.50
2023-03-23T23:58:20.573Z,99886.38
